CheckWX is a tool to help pilots better visualize weather data.  It is not intended as a substitute for an official pre-flight weather briefing.

03:50:53 UTC

OJAI METAR
Queen Alia International Airport
Amman, Jordan
Current

51 mins ago

OJAI 020300Z 03005KT 5000 HZ FEW030 17/06 Q1010 NOSIG
Observed
Jun-2 @ 03:00 UTC
Wind
  • 030° at 5 KTS
Visibility
5005 meters
Flight Rules
MVFR
Conditions
Haze
Cloud Levels
  • Few at 3,000' AGL
Temperature
17°C / 63°F
Dewpoint
C / 43°F
Humidity
49%
Altimeter
29.82" Hg
Pressure
1009.92 hPa
Previous

7 hours ago

OJAI 012100Z 00000KT 5000 HZ NSC 17/06 Q1012 NOSIG
Observed
Jun-1 @ 21:00 UTC
Visibility
5005 meters
Flight Rules
MVFR
Conditions
Haze
Cloud Levels
  • Clear skies
Temperature
17°C / 63°F
Dewpoint
C / 43°F
Humidity
49%
Altimeter
29.88" Hg
Pressure
1011.92 hPa
Previous

8 hours ago

OJAI 012000Z 10004KT 5000 HZ NSC 19/08 Q1013 NOSIG
Observed
Jun-1 @ 20:00 UTC
Wind
  • 100° at 4 KTS
Visibility
5005 meters
Flight Rules
MVFR
Conditions
Haze
Cloud Levels
  • Clear skies
Temperature
19°C / 66°F
Dewpoint
C / 46°F
Humidity
49%
Altimeter
29.91" Hg
Pressure
1012.92 hPa